Jacksonville, Florida
Current Conditions -  °F | °C
As of 2:56 AM on Sunday 26 Oct 2014 (Local Time) from KJAX Reporting Station
Clear Clear  
Wind Chill: 52°   Ceiling: Unl
Heat Index: 52°   Visibility: 10mi
Dew Point: 51°   Wind: 7mph
Humidity: 97%   Direction: 260°W
Pressure: 29.97"   Gusts: NA
Location:  30.32°N, 81.66°W
Report Text: KJAX 260656Z 26006KT 10SM CLR 11/11 A2997 RMK AO2 SLP148 T01110106
Loading
Personal Weather Stations






























Interactive Weather Map
Tropical Storm Tracking
New forecast layout! Learn more

10-Day Weather Forecast

Advertisements
Track Severe Weather on mobile